createdAt,value
2018-10-17T00:07:35.211Z,13.32
2018-10-17T00:12:38.985Z,14.33
2018-10-17T00:17:42.314Z,15.10
2018-10-17T00:22:45.620Z,13.10
2018-10-17T00:27:49.020Z,15.80
2018-10-17T00:32:52.283Z,15.53
2018-10-17T00:37:55.750Z,15.10
2018-10-17T00:42:59.108Z,14.33
2018-10-17T00:48:02.369Z,13.22
2018-10-17T00:53:05.865Z,14.05
2018-10-17T00:58:09.359Z,13.18
2018-10-17T01:03:12.703Z,13.40
2018-10-17T01:08:15.976Z,12.70
2018-10-17T01:13:19.323Z,13.15
2018-10-17T01:18:22.795Z,14.45
2018-10-17T01:23:26.215Z,15.08
2018-10-17T01:28:29.540Z,14.93
2018-10-17T01:33:32.982Z,14.23
2018-10-17T01:38:36.438Z,12.65
2018-10-17T01:43:39.763Z,11.40
2018-10-17T01:48:43.165Z,12.35
2018-10-17T01:53:46.521Z,14.03
2018-10-17T01:58:50.753Z,15.40
2018-10-17T02:03:53.996Z,14.40
2018-10-17T02:08:57.265Z,15.80
2018-10-17T02:14:02.730Z,16.83
2018-10-17T02:19:06.119Z,14.53
2018-10-17T02:24:09.522Z,16.90
2018-10-17T02:29:13.504Z,17.48
2018-10-17T02:34:17.711Z,14.20
2018-10-17T02:39:21.055Z,13.73
2018-10-17T02:44:24.443Z,13.40
2018-10-17T02:49:27.900Z,15.20
2018-10-17T02:54:31.246Z,15.30
2018-10-17T02:59:34.564Z,16.15
2018-10-17T03:04:37.820Z,16.45
2018-10-17T03:09:41.197Z,16.93
2018-10-17T03:14:45.623Z,16.60
2018-10-17T03:36:43.617Z,21.10
2018-10-17T03:41:46.914Z,21.20
2018-10-17T03:46:50.353Z,20.37
2018-10-17T03:51:53.826Z,20.83
2018-10-17T03:57:04.405Z,16.50
2018-10-17T04:02:07.764Z,16.20
2018-10-17T04:07:11.234Z,15.20
2018-10-17T04:12:14.598Z,17.23
2018-10-17T04:17:18.094Z,15.90
2018-10-17T04:22:21.362Z,17.60
2018-10-17T04:27:24.861Z,17.12
2018-10-17T04:32:28.214Z,17.80
2018-10-17T04:37:31.609Z,17.55
2018-10-17T04:42:35.357Z,16.90
2018-10-17T04:47:40.538Z,18.13
2018-10-17T04:52:44.006Z,17.00
2018-10-17T04:57:47.668Z,16.65
2018-10-17T05:02:51.023Z,16.67
2018-10-17T05:07:54.246Z,16.67
2018-10-17T05:12:57.573Z,17.60
2018-10-17T05:18:02.049Z,16.45
2018-10-17T05:23:07.701Z,16.67
2018-10-17T05:28:11.066Z,16.42
2018-10-17T05:33:14.347Z,17.75
2018-10-17T05:38:17.799Z,17.20
2018-10-17T05:43:21.118Z,16.82
2018-10-17T05:48:24.388Z,19.00
2018-10-17T05:53:28.019Z,17.77
2018-10-17T05:58:31.385Z,18.10
2018-10-17T06:03:34.726Z,18.23
2018-10-17T06:08:38.120Z,20.30
2018-10-17T06:13:41.383Z,19.82
2018-10-17T06:18:44.759Z,19.17
2018-10-17T06:23:48.097Z,18.98
2018-10-17T06:28:51.487Z,19.15
2018-10-17T06:33:54.831Z,20.23
2018-10-17T06:38:58.031Z,20.20
2018-10-17T06:44:01.479Z,22.20
2018-10-17T06:49:04.880Z,24.00
2018-10-17T06:54:08.623Z,19.82
2018-10-17T06:59:12.066Z,19.30
2018-10-17T07:04:15.372Z,16.20
2018-10-17T07:09:19.282Z,18.20
2018-10-17T07:14:22.673Z,19.07
2018-10-17T07:19:26.064Z,18.67
2018-10-17T07:24:29.396Z,17.10
2018-10-17T07:29:32.822Z,17.63
2018-10-17T07:34:46.858Z,19.20
2018-10-17T07:39:50.156Z,19.70
2018-10-17T07:44:53.433Z,20.30
2018-10-17T07:49:56.763Z,20.37
2018-10-17T07:55:00.125Z,20.65
2018-10-17T08:00:04.894Z,20.27
2018-10-17T08:05:08.155Z,19.30
2018-10-17T08:10:11.761Z,19.67
2018-10-17T08:15:15.141Z,17.87
2018-10-17T08:20:21.058Z,20.50
2018-10-17T08:25:25.461Z,19.15
2018-10-17T08:30:28.903Z,19.60
2018-10-17T08:35:32.446Z,17.95
2018-10-17T08:40:35.773Z,17.25
2018-10-17T08:45:39.397Z,17.92
2018-10-17T08:50:45.577Z,18.10
2018-10-17T08:55:49.067Z,14.83
2018-10-17T09:00:52.471Z,16.23
2018-10-17T09:05:55.869Z,16.60
2018-10-17T09:10:59.135Z,16.57
2018-10-17T09:16:02.594Z,16.25
2018-10-17T09:21:06.557Z,14.68
2018-10-17T09:26:09.383Z,15.10
2018-10-17T09:31:12.676Z,16.45
2018-10-17T09:36:16.188Z,16.37
2018-10-17T09:41:19.745Z,16.85
2018-10-17T09:46:23.256Z,15.30
2018-10-17T09:51:26.807Z,12.88
2018-10-17T09:56:30.073Z,16.50
2018-10-17T10:01:38.432Z,16.60
2018-10-17T10:06:41.784Z,16.32
2018-10-17T10:11:45.181Z,16.10
2018-10-17T10:16:48.599Z,15.10
2018-10-17T10:21:52.020Z,14.80
2018-10-17T10:26:55.322Z,14.07
2018-10-17T10:31:58.704Z,14.73
2018-10-17T10:37:02.080Z,14.20
2018-10-17T10:42:05.958Z,15.00
2018-10-17T10:47:09.242Z,13.75
2018-10-17T10:52:12.607Z,14.07
2018-10-17T10:57:16.151Z,14.90
2018-10-17T11:02:19.392Z,12.63
2018-10-17T11:07:22.707Z,12.90
2018-10-17T11:12:26.150Z,12.35
2018-10-17T11:17:29.602Z,11.95
2018-10-17T11:22:33.034Z,12.00
2018-10-17T11:27:37.754Z,11.75
2018-10-17T11:32:41.323Z,11.15
2018-10-17T11:37:44.923Z,13.22
2018-10-17T11:42:48.375Z,12.05
2018-10-17T11:47:55.620Z,10.38
2018-10-17T11:53:04.376Z,11.33
2018-10-17T11:58:07.896Z,9.70
2018-10-17T12:03:12.005Z,10.20
2018-10-17T12:08:35.659Z,9.80
2018-10-17T12:13:39.011Z,9.58
2018-10-17T12:18:42.462Z,8.63
2018-10-17T12:23:46.009Z,10.65
2018-10-17T12:28:51.573Z,9.78
2018-10-17T12:33:55.076Z,9.00
2018-10-17T12:38:59.116Z,9.43
2018-10-17T12:44:02.540Z,12.10
2018-10-17T12:49:05.978Z,8.90
2018-10-17T12:54:09.398Z,8.40
2018-10-17T12:59:13.807Z,10.80
2018-10-17T13:04:17.080Z,9.75
2018-10-17T13:09:20.389Z,10.55
2018-10-17T13:14:23.740Z,8.45
2018-10-17T13:19:27.777Z,8.33
2018-10-17T13:24:33.507Z,8.30
2018-10-17T13:29:40.449Z,9.98
2018-10-17T13:34:43.874Z,11.40
2018-10-17T13:39:48.443Z,8.95
2018-10-17T13:44:52.484Z,9.80
2018-10-17T13:50:02.268Z,9.80
2018-10-17T13:55:07.500Z,7.60
2018-10-17T14:00:12.235Z,8.85
2018-10-17T14:05:16.368Z,8.20
2018-10-17T14:10:19.803Z,8.50
2018-10-17T14:15:23.886Z,8.93
2018-10-17T14:20:27.344Z,8.95
2018-10-17T14:25:30.755Z,8.10
2018-10-17T14:30:34.155Z,8.50
2018-10-17T14:35:37.485Z,8.90
2018-10-17T14:40:41.016Z,9.10
2018-10-17T14:45:44.677Z,9.05
2018-10-17T14:50:51.958Z,7.20
2018-10-17T14:55:55.359Z,10.30
2018-10-17T15:00:58.555Z,8.13
2018-10-17T15:06:01.951Z,10.13
2018-10-17T15:11:05.853Z,6.80
2018-10-17T15:16:09.068Z,7.50
2018-10-17T15:21:13.283Z,7.30
2018-10-17T15:26:16.618Z,8.00
2018-10-17T15:31:20.035Z,7.28
2018-10-17T15:36:23.401Z,7.45
2018-10-17T15:41:26.847Z,7.20
2018-10-17T15:46:30.173Z,7.53
2018-10-17T15:51:33.441Z,8.13
2018-10-17T15:56:36.836Z,8.40
2018-10-17T16:01:40.288Z,8.13
2018-10-17T16:06:43.733Z,8.60
2018-10-17T16:11:47.066Z,9.40
2018-10-17T16:17:03.584Z,9.05
2018-10-17T16:22:08.531Z,9.43
2018-10-17T16:27:11.944Z,10.13
2018-10-17T16:32:15.443Z,14.20
2018-10-17T16:37:18.717Z,9.40
2018-10-17T16:42:22.143Z,10.00
2018-10-17T16:47:25.474Z,8.25
2018-10-17T16:52:28.915Z,9.60
2018-10-17T16:57:32.361Z,9.18
2018-10-17T17:02:36.022Z,8.90
2018-10-17T17:25:15.345Z,11.28
2018-10-17T17:30:21.102Z,10.40
2018-10-17T17:35:37.118Z,10.30
2018-10-17T17:40:56.965Z,10.50
2018-10-17T17:57:33.718Z,9.40
2018-10-17T18:02:52.431Z,9.20
2018-10-17T18:08:44.292Z,10.58
2018-10-17T18:13:55.797Z,10.43
2018-10-17T18:19:06.168Z,11.57
2018-10-17T18:40:42.764Z,12.10
2018-10-17T18:45:47.405Z,14.00
2018-10-17T18:52:01.367Z,15.28
2018-10-17T19:08:57.801Z,17.80
2018-10-17T19:25:01.872Z,26.13
2018-10-17T19:47:16.619Z,16.00
2018-10-17T19:57:39.107Z,14.90
2018-10-17T20:02:50.202Z,14.70
2018-10-17T20:07:56.474Z,14.13
2018-10-17T20:13:00.429Z,12.55
2018-10-17T20:18:03.860Z,14.30
2018-10-17T20:23:07.800Z,17.20
2018-10-17T20:28:11.895Z,17.10
2018-10-17T20:33:27.219Z,15.90
2018-10-17T20:38:30.691Z,15.63
2018-10-17T20:43:34.456Z,15.50
2018-10-17T20:48:38.524Z,15.80
2018-10-17T20:53:44.003Z,15.13
2018-10-17T20:59:07.141Z,15.10
2018-10-17T21:04:10.828Z,14.30
2018-10-17T21:09:15.104Z,14.87
2018-10-17T21:14:18.669Z,14.25
2018-10-17T21:19:22.293Z,15.40
2018-10-17T21:24:26.534Z,14.30
2018-10-17T21:29:30.047Z,14.77
2018-10-17T21:34:33.490Z,13.10
2018-10-17T21:39:38.190Z,14.45
2018-10-17T21:44:42.498Z,16.25
2018-10-17T21:49:45.932Z,15.40
2018-10-17T22:17:01.005Z,14.85
2018-10-17T22:22:05.208Z,16.25
2018-10-17T22:27:21.232Z,16.12
2018-10-17T22:43:04.511Z,16.73
2018-10-17T22:48:08.255Z,15.28
2018-10-17T22:53:11.977Z,18.60
2018-10-17T22:58:27.090Z,17.10
2018-10-17T23:03:31.084Z,16.82
2018-10-17T23:08:34.610Z,17.12
2018-10-17T23:13:38.528Z,16.07
2018-10-17T23:18:42.057Z,15.65
2018-10-17T23:23:45.420Z,16.35
2018-10-17T23:28:51.308Z,16.00
2018-10-17T23:33:55.177Z,17.80
2018-10-17T23:39:01.538Z,16.48
2018-10-17T23:44:23.186Z,16.30
2018-10-17T23:49:26.908Z,16.37
2018-10-17T23:54:31.562Z,16.27
2018-10-17T23:59:35.609Z,17.37
